Time;durP1;ratioP1;P1;durP2;ratioP2;P2;SDS_P1;SDS_P2;PMS_P1;PMS_P2;Temp;Humidity;BMP_temperature;BMP_pressure;BME280_temperature;BME280_humidity;BME280_pressure;Samples;Min_cycle;Max_cycle;Signal;HPM_P1;HPM_P2
2022/11/07 00:02:08;;;;;;;1.23;1.23;;;;;;;;;;5063626;28;20205;-70
2022/11/07 00:04:34;;;;;;;1.13;1.02;;;;;;;;;;5063596;28;20203;-70
2022/11/07 00:07:01;;;;;;;0.70;0.70;;;;;;;;;;5063621;28;20393;-70
2022/11/07 00:09:27;;;;;;;1.95;1.13;;;;;;;;;;5063679;28;20363;-70
2022/11/07 00:11:53;;;;;;;1.00;1.00;;;;;;;;;;5063500;28;20197;-70
2022/11/07 00:14:20;;;;;;;1.00;0.98;;;;;;;;;;5063535;28;20205;-70
2022/11/07 00:16:47;;;;;;;0.93;0.93;;;;;;;;;;5063452;28;20197;-70
2022/11/07 00:19:16;;;;;;;2.33;1.00;;;;;;;;;;5063035;28;20219;-70
2022/11/07 00:21:42;;;;;;;1.10;1.10;;;;;;;;;;5063480;28;20205;-70
2022/11/07 00:24:09;;;;;;;0.90;0.90;;;;;;;;;;5063258;28;20197;-70
2022/11/07 00:26:35;;;;;;;3.80;0.80;;;;;;;;;;5063131;28;20221;-70
2022/11/07 00:29:02;;;;;;;0.90;0.90;;;;;;;;;;5062803;28;20217;-70
2022/11/07 00:31:28;;;;;;;1.00;1.00;;;;;;;;;;5063066;28;20504;-70
2022/11/07 00:33:54;;;;;;;0.80;0.80;;;;;;;;;;5063241;28;20212;-70
2022/11/07 00:36:23;;;;;;;0.82;0.82;;;;;;;;;;5063145;28;20189;-70
2022/11/07 00:38:49;;;;;;;0.80;0.80;;;;;;;;;;5062956;28;20197;-70
2022/11/07 00:41:16;;;;;;;1.25;0.90;;;;;;;;;;5063037;28;20205;-70
2022/11/07 00:43:42;;;;;;;0.90;0.90;;;;;;;;;;5062971;28;20395;-70
2022/11/07 00:46:09;;;;;;;0.63;0.60;;;;;;;;;;5062589;28;20227;-70
2022/11/07 00:48:35;;;;;;;1.83;1.00;;;;;;;;;;5062544;28;20201;-70
2022/11/07 00:51:04;;;;;;;0.73;0.70;;;;;;;;;;5062702;28;20197;-70
2022/11/07 00:53:32;;;;;;;1.55;1.10;;;;;;;;;;5062689;28;20208;-70
2022/11/07 00:56:00;;;;;;;0.90;0.90;;;;;;;;;;5062674;28;20216;-70
2022/11/07 00:58:26;;;;;;;1.33;0.90;;;;;;;;;;5062848;28;20496;-70
2022/11/07 01:00:52;;;;;;;1.73;1.00;;;;;;;;;;5062812;28;20224;-70
2022/11/07 01:06:03;;;;;;;0.82;0.82;;;;;;;;;;5062257;28;20379;-70
2022/11/07 01:08:30;;;;;;;0.80;0.80;;;;;;;;;;5062360;28;20212;-70
2022/11/07 01:10:58;;;;;;;1.17;0.80;;;;;;;;;;5062485;28;20197;-70
2022/11/07 01:13:26;;;;;;;1.15;0.88;;;;;;;;;;5062685;28;20201;-70
2022/11/07 01:15:52;;;;;;;0.70;0.65;;;;;;;;;;5062604;28;20197;-70
2022/11/07 01:18:18;;;;;;;0.80;0.80;;;;;;;;;;5062184;28;20228;-70
2022/11/07 01:20:44;;;;;;;2.10;0.95;;;;;;;;;;5062337;28;20243;-70
2022/11/07 01:23:11;;;;;;;0.80;0.80;;;;;;;;;;5062216;28;20205;-70
2022/11/07 01:25:37;;;;;;;1.20;1.20;;;;;;;;;;5062207;28;20197;-70
2022/11/07 01:28:05;;;;;;;0.70;0.70;;;;;;;;;;5061678;28;20231;-70
2022/11/07 01:30:32;;;;;;;0.90;0.90;;;;;;;;;;5062121;28;20543;-70
2022/11/07 01:32:58;;;;;;;2.20;0.90;;;;;;;;;;5062036;28;20197;-70
2022/11/07 01:35:24;;;;;;;1.45;1.10;;;;;;;;;;5062029;28;20412;-70
2022/11/07 01:37:50;;;;;;;0.90;0.90;;;;;;;;;;5061795;28;20193;-70
2022/11/07 01:40:17;;;;;;;1.63;0.90;;;;;;;;;;5061799;28;20197;-70
2022/11/07 01:42:43;;;;;;;1.10;1.10;;;;;;;;;;5062079;28;20201;-70
2022/11/07 01:45:14;;;;;;;1.25;1.10;;;;;;;;;;5062058;28;20504;-70
2022/11/07 01:47:41;;;;;;;1.70;1.00;;;;;;;;;;5061645;28;20400;-70
2022/11/07 01:50:07;;;;;;;1.38;1.02;;;;;;;;;;5061684;28;20204;-70
2022/11/07 01:52:36;;;;;;;1.40;0.80;;;;;;;;;;5061642;28;20211;-70
2022/11/07 01:55:05;;;;;;;0.90;0.90;;;;;;;;;;5061878;28;20448;-70
2022/11/07 01:57:33;;;;;;;1.00;1.00;;;;;;;;;;5061718;28;20197;-70
2022/11/07 02:00:01;;;;;;;0.90;0.90;;;;;;;;;;5061419;28;20196;-70
2022/11/07 02:02:29;;;;;;;1.63;0.80;;;;;;;;;;5061761;28;20201;-70
2022/11/07 02:04:56;;;;;;;1.42;0.90;;;;;;;;;;5061535;28;20196;-70
2022/11/07 02:07:23;;;;;;;1.08;1.08;;;;;;;;;;5061494;28;20217;-70
2022/11/07 02:09:50;;;;;;;0.95;0.93;;;;;;;;;;5061560;28;20205;-70
2022/11/07 02:12:17;;;;;;;1.02;0.93;;;;;;;;;;5061714;28;20197;-70
2022/11/07 02:14:43;;;;;;;1.00;1.00;;;;;;;;;;5061620;28;20205;-70
2022/11/07 02:17:10;;;;;;;2.17;1.00;;;;;;;;;;5061463;28;20200;-70
2022/11/07 02:19:40;;;;;;;2.05;0.90;;;;;;;;;;5063940;28;20205;-70
2022/11/07 02:22:11;;;;;;;0.80;0.80;;;;;;;;;;5065480;28;20224;-70
2022/11/07 02:24:39;;;;;;;0.80;0.80;;;;;;;;;;5065673;28;20422;-70
2022/11/07 02:27:07;;;;;;;0.90;0.90;;;;;;;;;;5065261;28;20221;-70
2022/11/07 02:29:34;;;;;;;0.90;0.90;;;;;;;;;;5065322;28;20204;-70
2022/11/07 02:32:01;;;;;;;1.35;1.00;;;;;;;;;;5065501;28;20528;-70
2022/11/07 02:34:27;;;;;;;1.02;0.90;;;;;;;;;;5065234;28;20203;-70
2022/11/07 02:36:53;;;;;;;0.90;0.90;;;;;;;;;;5065211;28;20224;-70
2022/11/07 02:39:20;;;;;;;2.17;0.90;;;;;;;;;;5065174;28;20203;-70
2022/11/07 02:41:47;;;;;;;1.00;1.00;;;;;;;;;;5065187;28;20220;-70
2022/11/07 02:44:14;;;;;;;1.27;0.95;;;;;;;;;;5065469;28;20442;-70
2022/11/07 02:46:40;;;;;;;0.80;0.80;;;;;;;;;;5065235;28;20216;-70
2022/11/07 02:49:07;;;;;;;0.98;0.82;;;;;;;;;;5064876;28;20204;-70
2022/11/07 02:51:33;;;;;;;1.10;1.10;;;;;;;;;;5065014;28;20189;-70
2022/11/07 02:53:59;;;;;;;0.80;0.80;;;;;;;;;;5065069;28;20220;-70
2022/11/07 02:56:25;;;;;;;1.45;0.80;;;;;;;;;;5064890;28;20271;-70
2022/11/07 02:58:53;;;;;;;0.98;0.98;;;;;;;;;;5064704;28;20196;-70
2022/11/07 03:01:19;;;;;;;3.10;0.93;;;;;;;;;;5064790;28;20208;-70
2022/11/07 03:03:46;;;;;;;0.93;0.70;;;;;;;;;;5064843;28;20197;-70
2022/11/07 03:06:14;;;;;;;2.75;1.00;;;;;;;;;;5064805;28;20197;-70
2022/11/07 03:08:40;;;;;;;1.25;1.15;;;;;;;;;;5064959;28;20221;-70
2022/11/07 03:11:07;;;;;;;1.02;0.85;;;;;;;;;;5064766;28;20243;-70
2022/11/07 03:13:33;;;;;;;0.90;0.90;;;;;;;;;;5064651;28;20197;-70
2022/11/07 03:16:03;;;;;;;0.90;0.90;;;;;;;;;;5064727;28;20201;-70
2022/11/07 03:18:29;;;;;;;1.67;0.90;;;;;;;;;;5064247;28;20223;-70
2022/11/07 03:20:56;;;;;;;1.20;1.10;;;;;;;;;;5064551;28;20505;-70
2022/11/07 03:23:22;;;;;;;1.67;0.90;;;;;;;;;;5064297;28;20387;-70
2022/11/07 03:25:48;;;;;;;1.00;1.00;;;;;;;;;;5064426;28;20193;-71
2022/11/07 03:28:14;;;;;;;0.98;0.90;;;;;;;;;;5064108;28;20425;-71
2022/11/07 03:30:41;;;;;;;0.80;0.80;;;;;;;;;;5064294;28;20205;-71
2022/11/07 03:33:09;;;;;;;4.38;1.00;;;;;;;;;;5064316;28;20235;-70
2022/11/07 03:35:35;;;;;;;0.82;0.80;;;;;;;;;;5064267;28;20197;-70
2022/11/07 03:38:01;;;;;;;0.93;0.80;;;;;;;;;;5063823;28;20204;-70
2022/11/07 03:40:27;;;;;;;0.80;0.80;;;;;;;;;;5064280;28;20396;-70
2022/11/07 03:42:54;;;;;;;0.82;0.82;;;;;;;;;;5064290;28;20513;-71
2022/11/07 03:45:20;;;;;;;0.80;0.80;;;;;;;;;;5064159;28;20219;-71
2022/11/07 03:47:47;;;;;;;1.70;0.98;;;;;;;;;;5063668;28;20220;-70
2022/11/07 03:50:15;;;;;;;0.80;0.80;;;;;;;;;;5063992;28;20196;-70
2022/11/07 03:52:42;;;;;;;0.75;0.70;;;;;;;;;;5063834;28;20204;-70
2022/11/07 03:55:09;;;;;;;1.17;1.08;;;;;;;;;;5063861;28;20197;-70
2022/11/07 03:57:36;;;;;;;2.72;2.53;;;;;;;;;;5063708;28;20201;-70
2022/11/07 04:00:02;;;;;;;3.42;3.22;;;;;;;;;;5063874;28;20219;-70
2022/11/07 04:02:28;;;;;;;2.50;2.40;;;;;;;;;;5063752;28;20504;-70
2022/11/07 04:04:55;;;;;;;2.47;2.28;;;;;;;;;;5063598;28;20203;-70
2022/11/07 04:07:22;;;;;;;3.03;1.90;;;;;;;;;;5063437;28;20217;-70
2022/11/07 04:09:49;;;;;;;1.75;1.08;;;;;;;;;;5063210;28;20219;-70
2022/11/07 04:17:42;;;;;;;1.85;1.73;;;;;;;;;;5063227;28;20187;-70
2022/11/07 04:20:09;;;;;;;1.80;1.80;;;;;;;;;;5063270;28;20205;-70
2022/11/07 04:22:37;;;;;;;1.88;1.80;;;;;;;;;;5063489;28;20385;-70
2022/11/07 04:25:03;;;;;;;1.63;1.55;;;;;;;;;;5063378;28;20197;-70
2022/11/07 04:27:45;;;;;;;2.65;1.60;;;;;;;;;;5063074;28;20225;-70
2022/11/07 04:30:19;;;;;;;1.55;1.30;;;;;;;;;;5063256;28;20216;-70
2022/11/07 04:32:45;;;;;;;1.60;1.13;;;;;;;;;;5063418;28;20391;-70
2022/11/07 04:35:11;;;;;;;1.02;1.02;;;;;;;;;;5063141;28;20205;-70
2022/11/07 04:37:39;;;;;;;2.28;1.30;;;;;;;;;;5062809;28;20201;-70
2022/11/07 04:40:06;;;;;;;2.90;1.15;;;;;;;;;;5063043;28;20247;-70
2022/11/07 04:42:32;;;;;;;0.88;0.88;;;;;;;;;;5062288;28;20404;-70
2022/11/07 04:44:59;;;;;;;1.88;1.33;;;;;;;;;;5062824;28;20197;-70
2022/11/07 04:47:25;;;;;;;2.53;1.20;;;;;;;;;;5063050;28;20224;-70
2022/11/07 04:49:51;;;;;;;2.65;0.95;;;;;;;;;;5062596;28;20228;-70
2022/11/07 04:52:17;;;;;;;1.30;1.13;;;;;;;;;;5062866;28;20339;-70
2022/11/07 04:54:45;;;;;;;1.20;1.20;;;;;;;;;;5062872;28;20201;-70
2022/11/07 04:57:11;;;;;;;1.35;1.10;;;;;;;;;;5062596;28;20197;-70
2022/11/07 04:59:38;;;;;;;1.10;1.10;;;;;;;;;;5062489;28;20232;-70
2022/11/07 05:02:04;;;;;;;1.95;1.30;;;;;;;;;;5062671;28;20205;-70
2022/11/07 05:04:30;;;;;;;1.30;1.20;;;;;;;;;;5062613;28;20204;-70
2022/11/07 05:06:56;;;;;;;1.20;1.20;;;;;;;;;;5062463;28;20289;-70
2022/11/07 05:09:23;;;;;;;1.40;1.40;;;;;;;;;;5062325;28;20269;-70
2022/11/07 05:11:50;;;;;;;1.40;1.30;;;;;;;;;;5062326;28;20201;-70
2022/11/07 05:14:17;;;;;;;1.35;1.20;;;;;;;;;;5062375;28;20272;-70
2022/11/07 05:16:43;;;;;;;1.70;1.60;;;;;;;;;;5062489;28;20509;-70
2022/11/07 05:19:12;;;;;;;1.60;1.50;;;;;;;;;;5062014;28;20390;-70
2022/11/07 05:21:38;;;;;;;2.20;2.03;;;;;;;;;;5062304;28;20197;-70
2022/11/07 05:24:04;;;;;;;3.33;2.40;;;;;;;;;;5062216;28;20200;-70
2022/11/07 05:26:30;;;;;;;3.08;2.47;;;;;;;;;;5062186;28;20225;-70
2022/11/07 05:28:58;;;;;;;3.35;3.15;;;;;;;;;;5062097;28;20221;-70
2022/11/07 05:31:24;;;;;;;9.00;7.07;;;;;;;;;;5061947;28;20207;-70
2022/11/07 05:33:50;;;;;;;8.18;5.30;;;;;;;;;;5062108;28;20373;-70
2022/11/07 05:36:18;;;;;;;6.15;4.28;;;;;;;;;;5062054;28;20197;-70
2022/11/07 05:38:46;;;;;;;4.10;3.70;;;;;;;;;;5061780;28;20197;-70
2022/11/07 05:41:13;;;;;;;2.70;2.50;;;;;;;;;;5062151;28;20500;-70
2022/11/07 05:43:39;;;;;;;2.35;2.17;;;;;;;;;;5062004;28;20197;-70
2022/11/07 05:46:07;;;;;;;2.25;2.05;;;;;;;;;;5061672;28;20211;-70
2022/11/07 05:48:33;;;;;;;2.00;1.90;;;;;;;;;;5061205;28;20219;-70
2022/11/07 05:51:00;;;;;;;1.77;1.70;;;;;;;;;;5061426;28;20197;-70
2022/11/07 05:53:27;;;;;;;3.42;1.90;;;;;;;;;;5060401;28;20197;-70
2022/11/07 05:55:53;;;;;;;2.10;1.88;;;;;;;;;;5061476;28;20201;-70
2022/11/07 05:58:20;;;;;;;2.08;1.90;;;;;;;;;;5061314;28;20295;-71
2022/11/07 06:00:47;;;;;;;1.73;1.63;;;;;;;;;;5061606;28;20259;-71
2022/11/07 06:03:15;;;;;;;1.80;1.70;;;;;;;;;;5061489;28;20235;-71
2022/11/07 06:05:42;;;;;;;1.70;1.60;;;;;;;;;;5061510;28;20682;-71
2022/11/07 06:08:09;;;;;;;2.67;1.77;;;;;;;;;;5060889;28;20284;-71
2022/11/07 06:10:36;;;;;;;2.25;2.15;;;;;;;;;;5061610;28;20197;-71
2022/11/07 06:13:03;;;;;;;2.42;2.20;;;;;;;;;;5061160;28;20201;-71
2022/11/07 06:15:30;;;;;;;2.00;1.90;;;;;;;;;;5061343;28;20200;-71
2022/11/07 06:17:59;;;;;;;2.30;2.10;;;;;;;;;;5060920;28;20196;-71
2022/11/07 06:20:27;;;;;;;5.10;2.35;;;;;;;;;;5061409;28;20197;-71
2022/11/07 06:22:56;;;;;;;4.10;2.33;;;;;;;;;;5061333;28;20205;-71
2022/11/07 06:25:22;;;;;;;3.80;2.60;;;;;;;;;;5061452;28;20197;-71
2022/11/07 06:27:49;;;;;;;3.63;2.70;;;;;;;;;;5060985;28;20536;-71
2022/11/07 06:30:15;;;;;;;3.65;2.60;;;;;;;;;;5061455;28;20432;-71
2022/11/07 06:32:43;;;;;;;3.60;2.50;;;;;;;;;;5061333;28;20204;-71
2022/11/07 06:35:09;;;;;;;3.78;3.00;;;;;;;;;;5061271;28;20197;-71
2022/11/07 06:37:37;;;;;;;3.17;2.70;;;;;;;;;;5061302;28;20496;-71
2022/11/07 06:40:04;;;;;;;3.38;2.15;;;;;;;;;;5052398;28;20512;-61
2022/11/07 06:42:31;;;;;;;2.25;2.08;;;;;;;;;;5055793;28;20209;-61
2022/11/07 06:44:58;;;;;;;2.92;1.85;;;;;;;;;;5056755;28;20225;-61
2022/11/07 06:47:24;;;;;;;2.78;1.90;;;;;;;;;;5047262;28;20390;-60
2022/11/07 06:49:50;;;;;;;2.65;2.22;;;;;;;;;;5056817;28;20228;-63
2022/11/07 06:52:16;;;;;;;3.63;2.38;;;;;;;;;;5057629;28;20214;-61
2022/11/07 06:54:44;;;;;;;2.70;1.95;;;;;;;;;;5058552;28;20284;-62
2022/11/07 06:57:10;;;;;;;4.38;2.00;;;;;;;;;;5051064;28;20209;-62
2022/11/07 06:59:37;;;;;;;4.30;3.00;;;;;;;;;;5038865;28;20420;-62
2022/11/07 07:02:03;;;;;;;6.65;2.28;;;;;;;;;;5038565;28;20213;-62
2022/11/07 07:04:29;;;;;;;5.57;3.13;;;;;;;;;;5048251;28;20204;-62
2022/11/07 07:06:55;;;;;;;3.33;3.03;;;;;;;;;;5062062;28;20212;-62
2022/11/07 07:09:22;;;;;;;4.50;2.85;;;;;;;;;;5062009;28;20613;-62
2022/11/07 07:11:49;;;;;;;3.63;3.00;;;;;;;;;;5062160;28;20205;-62
2022/11/07 07:14:15;;;;;;;7.68;2.80;;;;;;;;;;5061931;28;20212;-62
2022/11/07 07:16:42;;;;;;;6.18;3.60;;;;;;;;;;5061708;28;20211;-62
2022/11/07 07:19:08;;;;;;;8.30;3.95;;;;;;;;;;5062072;28;20426;-63
2022/11/07 07:21:34;;;;;;;6.20;3.80;;;;;;;;;;5062546;28;20209;-63
2022/11/07 07:24:00;;;;;;;7.57;3.90;;;;;;;;;;5053165;28;20209;-63
2022/11/07 07:26:27;;;;;;;8.75;4.38;;;;;;;;;;5042164;28;20216;-63
2022/11/07 07:28:55;;;;;;;11.07;4.50;;;;;;;;;;5051150;28;20249;-63
2022/11/07 07:31:23;;;;;;;6.40;4.38;;;;;;;;;;5042703;28;20205;-63
2022/11/07 07:33:49;;;;;;;8.23;3.92;;;;;;;;;;5042357;28;20216;-63
2022/11/07 07:36:16;;;;;;;5.65;3.88;;;;;;;;;;5045402;28;20216;-61
2022/11/07 07:38:42;;;;;;;11.13;4.10;;;;;;;;;;5059408;28;20558;-62
2022/11/07 07:41:09;;;;;;;5.13;3.90;;;;;;;;;;5041183;28;20440;-62
2022/11/07 07:43:35;;;;;;;4.55;3.92;;;;;;;;;;5041163;28;20376;-62
2022/11/07 07:46:04;;;;;;;9.13;4.40;;;;;;;;;;5057139;28;20205;-61
2022/11/07 07:48:30;;;;;;;7.47;3.83;;;;;;;;;;5052397;28;20245;-62
2022/11/07 07:50:57;;;;;;;8.02;4.00;;;;;;;;;;5046038;28;20209;-62
2022/11/07 07:53:24;;;;;;;7.88;3.67;;;;;;;;;;5061216;28;20204;-62
2022/11/07 07:55:50;;;;;;;6.65;3.80;;;;;;;;;;5049116;28;20227;-61
2022/11/07 07:58:16;;;;;;;6.07;3.58;;;;;;;;;;5060700;28;20201;-61
2022/11/07 08:00:42;;;;;;;4.70;3.80;;;;;;;;;;5060971;28;20216;-61
2022/11/07 08:03:11;;;;;;;5.28;3.90;;;;;;;;;;5060439;28;20556;-62
2022/11/07 08:05:38;;;;;;;5.88;3.72;;;;;;;;;;5049209;28;20210;-62
2022/11/07 08:08:05;;;;;;;5.53;3.35;;;;;;;;;;5040329;28;20386;-64
2022/11/07 08:10:31;;;;;;;3.75;3.35;;;;;;;;;;5039926;28;20220;-63
2022/11/07 08:12:57;;;;;;;6.25;3.30;;;;;;;;;;5040542;28;20206;-62
2022/11/07 08:15:23;;;;;;;4.95;3.08;;;;;;;;;;5040050;28;20523;-62
2022/11/07 08:17:50;;;;;;;4.78;3.53;;;;;;;;;;5047130;28;20210;-62
2022/11/07 08:20:19;;;;;;;5.10;2.95;;;;;;;;;;5040074;28;20224;-62
2022/11/07 08:22:45;;;;;;;5.70;3.05;;;;;;;;;;5040540;28;20217;-60
2022/11/07 08:25:11;;;;;;;5.90;2.50;;;;;;;;;;5038813;28;20210;-61
2022/11/07 08:27:38;;;;;;;4.63;2.63;;;;;;;;;;5039766;28;20571;-61
2022/11/07 08:30:05;;;;;;;4.80;2.50;;;;;;;;;;5041144;28;20229;-61
2022/11/07 08:32:32;;;;;;;3.70;2.30;;;;;;;;;;5040713;28;20213;-61
2022/11/07 08:34:58;;;;;;;5.30;2.55;;;;;;;;;;5046422;28;20216;-62
2022/11/07 08:37:26;;;;;;;4.03;2.45;;;;;;;;;;5045448;28;20504;-62
2022/11/07 08:39:52;;;;;;;2.10;2.00;;;;;;;;;;5050710;28;20212;-62
2022/11/07 08:42:18;;;;;;;5.90;2.20;;;;;;;;;;5054863;28;20205;-61
2022/11/07 08:44:45;;;;;;;5.15;2.20;;;;;;;;;;5059991;28;20216;-62
2022/11/07 08:47:11;;;;;;;2.53;2.20;;;;;;;;;;5059872;28;20555;-65
2022/11/07 08:49:37;;;;;;;2.35;1.70;;;;;;;;;;5058284;28;20225;-62
2022/11/07 08:52:04;;;;;;;2.85;2.05;;;;;;;;;;5040129;28;20206;-61
2022/11/07 08:54:32;;;;;;;2.33;1.88;;;;;;;;;;5039894;28;20213;-64
2022/11/07 08:56:58;;;;;;;1.73;1.55;;;;;;;;;;5039310;28;20285;-62
2022/11/07 08:59:25;;;;;;;3.40;2.08;;;;;;;;;;5042099;28;20202;-62
2022/11/07 09:01:51;;;;;;;3.78;1.92;;;;;;;;;;5060591;28;20197;-62
2022/11/07 09:04:17;;;;;;;5.03;2.08;;;;;;;;;;5059873;28;20209;-62
2022/11/07 09:06:43;;;;;;;2.50;2.03;;;;;;;;;;5048398;28;20206;-62
2022/11/07 09:09:10;;;;;;;9.73;2.05;;;;;;;;;;5054428;28;20229;-62
2022/11/07 09:11:37;;;;;;;1.67;1.58;;;;;;;;;;5039968;28;20540;-63
2022/11/07 09:14:03;;;;;;;2.10;1.73;;;;;;;;;;5053715;28;20209;-63
2022/11/07 09:16:30;;;;;;;3.15;1.80;;;;;;;;;;5050286;28;20236;-62
2022/11/07 09:18:56;;;;;;;5.32;1.63;;;;;;;;;;5047457;28;20201;-62
2022/11/07 09:21:22;;;;;;;2.60;1.20;;;;;;;;;;5040368;28;20267;-63
2022/11/07 09:23:49;;;;;;;1.88;1.15;;;;;;;;;;5041094;28;20206;-63
2022/11/07 09:26:15;;;;;;;1.42;1.27;;;;;;;;;;5045377;28;20536;-63
2022/11/07 09:28:43;;;;;;;3.75;1.35;;;;;;;;;;5039355;28;20238;-63
2022/11/07 09:31:09;;;;;;;3.05;1.27;;;;;;;;;;5039881;28;20213;-64
2022/11/07 09:33:35;;;;;;;4.45;1.38;;;;;;;;;;5040107;28;20206;-63
2022/11/07 09:36:02;;;;;;;3.65;1.30;;;;;;;;;;5042785;28;20209;-64
2022/11/07 09:38:28;;;;;;;15.13;8.43;;;;;;;;;;5044522;28;20469;-64
2022/11/07 09:41:00;;;;;;;3.67;2.40;;;;;;;;;;5059792;28;20224;-63
2022/11/07 09:43:39;;;;;;;4.40;1.67;;;;;;;;;;5040349;28;20214;-63
2022/11/07 09:46:13;;;;;;;6.13;1.40;;;;;;;;;;5040224;28;20205;-63
2022/11/07 09:48:43;;;;;;;1.70;1.33;;;;;;;;;;5059578;28;20223;-63
2022/11/07 09:51:13;;;;;;;4.70;1.25;;;;;;;;;;5052116;28;20509;-63
2022/11/07 09:53:41;;;;;;;3.83;1.20;;;;;;;;;;5059700;28;20215;-63
2022/11/07 09:56:11;;;;;;;1.30;1.20;;;;;;;;;;5046610;28;20209;-64
2022/11/07 09:58:40;;;;;;;1.85;1.20;;;;;;;;;;5057399;28;20197;-63
2022/11/07 10:01:10;;;;;;;4.57;1.60;;;;;;;;;;5059424;28;20208;-63
2022/11/07 10:03:38;;;;;;;3.78;1.63;;;;;;;;;;5059840;28;20205;-63
2022/11/07 10:06:10;;;;;;;4.65;1.35;;;;;;;;;;5046525;28;20202;-63
2022/11/07 10:08:40;;;;;;;3.92;1.70;;;;;;;;;;5039748;28;20205;-63
2022/11/07 10:11:08;;;;;;;1.50;1.20;;;;;;;;;;5058205;28;20215;-63
2022/11/07 10:13:44;;;;;;;5.68;1.48;;;;;;;;;;5059939;28;20377;-63
2022/11/07 10:16:14;;;;;;;5.43;1.48;;;;;;;;;;5052388;28;20205;-63
2022/11/07 10:18:48;;;;;;;1.85;1.20;;;;;;;;;;5040525;28;20243;-63
2022/11/07 10:21:17;;;;;;;5.88;1.63;;;;;;;;;;5049852;28;20403;-63
2022/11/07 10:23:49;;;;;;;1.83;1.35;;;;;;;;;;5051819;28;20426;-63
2022/11/07 10:26:18;;;;;;;4.10;1.95;;;;;;;;;;5038844;28;20517;-63
2022/11/07 10:28:46;;;;;;;4.80;1.75;;;;;;;;;;5038954;28;20245;-63
2022/11/07 10:31:13;;;;;;;5.43;1.52;;;;;;;;;;5040275;28;20212;-63
2022/11/07 10:33:42;;;;;;;5.97;1.90;;;;;;;;;;5039288;28;20224;-64
2022/11/07 10:36:14;;;;;;;7.55;2.17;;;;;;;;;;5040848;28;20213;-64
2022/11/07 10:38:41;;;;;;;2.97;1.45;;;;;;;;;;5039092;28;20205;-64
2022/11/07 10:41:11;;;;;;;4.70;1.33;;;;;;;;;;5063377;28;20201;-64
2022/11/07 10:43:38;;;;;;;4.28;1.33;;;;;;;;;;5058686;28;20521;-64
2022/11/07 10:46:10;;;;;;;6.68;1.40;;;;;;;;;;5043104;28;20205;-64
2022/11/07 10:48:36;;;;;;;3.30;1.50;;;;;;;;;;5043004;28;20205;-64
2022/11/07 10:51:02;;;;;;;8.00;1.77;;;;;;;;;;5042737;28;20204;-64
2022/11/07 10:53:30;;;;;;;2.40;1.60;;;;;;;;;;5043449;28;20220;-64
2022/11/07 10:55:58;;;;;;;3.33;1.55;;;;;;;;;;5054219;28;20213;-64
2022/11/07 10:58:25;;;;;;;4.70;1.02;;;;;;;;;;5053894;28;20205;-64
2022/11/07 11:00:59;;;;;;;4.25;1.73;;;;;;;;;;5063293;28;20236;-64
2022/11/07 11:03:27;;;;;;;2.17;1.33;;;;;;;;;;5047531;28;20222;-64
2022/11/07 11:05:54;;;;;;;6.15;1.77;;;;;;;;;;5043197;28;20445;-64
2022/11/07 11:08:22;;;;;;;2.58;1.35;;;;;;;;;;5043714;28;20245;-64
2022/11/07 11:10:49;;;;;;;5.68;1.40;;;;;;;;;;5043344;28;20288;-64
2022/11/07 11:13:25;;;;;;;3.40;1.20;;;;;;;;;;5052740;28;20209;-64
2022/11/07 11:15:51;;;;;;;3.78;1.63;;;;;;;;;;5043826;28;20212;-64
2022/11/07 11:18:18;;;;;;;6.28;1.73;;;;;;;;;;5051288;28;20453;-64
2022/11/07 11:20:46;;;;;;;3.72;1.63;;;;;;;;;;5044575;28;20232;-64
2022/11/07 11:23:18;;;;;;;4.38;1.30;;;;;;;;;;5060251;28;20205;-64
2022/11/07 11:25:45;;;;;;;2.95;1.60;;;;;;;;;;5054764;28;20544;-64
2022/11/07 11:28:18;;;;;;;3.80;1.60;;;;;;;;;;5052922;28;20439;-64
2022/11/07 11:30:47;;;;;;;3.90;1.40;;;;;;;;;;5058998;28;20544;-64
2022/11/07 11:33:16;;;;;;;2.78;1.05;;;;;;;;;;5059278;28;20465;-64
2022/11/07 11:35:44;;;;;;;5.10;1.20;;;;;;;;;;5055235;28;20240;-64
2022/11/07 11:38:13;;;;;;;7.55;1.25;;;;;;;;;;5055019;28;20205;-64
2022/11/07 11:40:42;;;;;;;2.90;1.48;;;;;;;;;;5044222;28;20202;-64
2022/11/07 11:43:16;;;;;;;4.97;1.30;;;;;;;;;;5058108;28;20236;-64
2022/11/07 11:45:49;;;;;;;2.13;1.10;;;;;;;;;;5058590;28;20215;-64
2022/11/07 11:48:22;;;;;;;2.60;0.90;;;;;;;;;;5045870;28;20433;-64
2022/11/07 11:50:50;;;;;;;3.08;1.13;;;;;;;;;;5038219;28;20503;-64
2022/11/07 11:53:18;;;;;;;5.13;1.20;;;;;;;;;;5039021;28;20240;-64
2022/11/07 11:55:46;;;;;;;4.72;1.50;;;;;;;;;;5052688;28;20220;-64
2022/11/07 11:58:19;;;;;;;1.95;1.20;;;;;;;;;;5057631;28;20213;-64
2022/11/07 12:00:51;;;;;;;6.75;1.13;;;;;;;;;;5058898;28;20205;-64
2022/11/07 12:03:24;;;;;;;4.00;1.45;;;;;;;;;;5058658;28;20550;-64
2022/11/07 12:06:03;;;;;;;2.17;1.30;;;;;;;;;;5056756;28;20212;-64
2022/11/07 12:08:35;;;;;;;3.03;1.10;;;;;;;;;;5056814;28;20220;-64
2022/11/07 12:11:05;;;;;;;0.98;0.90;;;;;;;;;;5056482;28;20299;-64
2022/11/07 12:13:34;;;;;;;6.50;0.98;;;;;;;;;;5057627;28;20213;-64
2022/11/07 12:16:08;;;;;;;4.53;1.02;;;;;;;;;;5056813;28;20224;-64
2022/11/07 12:18:39;;;;;;;1.90;0.90;;;;;;;;;;5057081;28;20543;-64
2022/11/07 12:21:11;;;;;;;4.22;0.70;;;;;;;;;;5056688;28;20208;-63
2022/11/07 12:23:45;;;;;;;5.78;1.40;;;;;;;;;;5039467;28;20221;-63
2022/11/07 12:26:14;;;;;;;4.13;1.02;;;;;;;;;;5048436;28;20218;-63
2022/11/07 12:28:46;;;;;;;5.70;1.02;;;;;;;;;;5039538;28;20230;-64
2022/11/07 12:31:23;;;;;;;4.10;0.98;;;;;;;;;;5040160;28;20237;-63
2022/11/07 12:33:53;;;;;;;8.07;0.90;;;;;;;;;;5058854;28;20212;-63
2022/11/07 12:36:27;;;;;;;11.32;6.53;;;;;;;;;;5055243;28;20210;-63
2022/11/07 12:39:07;;;;;;;7.30;1.85;;;;;;;;;;5039644;28;20212;-63
2022/11/07 12:41:39;;;;;;;11.60;5.28;;;;;;;;;;5057647;28;20200;-63
2022/11/07 12:44:17;;;;;;;29.92;15.45;;;;;;;;;;5051881;28;20224;-63
2022/11/07 12:46:47;;;;;;;20.42;10.57;;;;;;;;;;5039056;28;20552;-63
2022/11/07 12:49:23;;;;;;;11.45;6.68;;;;;;;;;;5051977;28;20422;-63
2022/11/07 12:51:55;;;;;;;4.93;2.85;;;;;;;;;;5051389;28;20536;-63
2022/11/07 12:54:29;;;;;;;8.43;4.90;;;;;;;;;;5037765;28;20210;-63
2022/11/07 12:56:56;;;;;;;2.67;1.00;;;;;;;;;;5049988;28;20216;-62
2022/11/07 12:59:24;;;;;;;1.73;1.63;;;;;;;;;;5038113;28;20209;-63
2022/11/07 13:01:54;;;;;;;3.50;2.53;;;;;;;;;;5037568;28;20512;-63
2022/11/07 13:04:22;;;;;;;6.50;1.40;;;;;;;;;;5051399;28;20212;-62
2022/11/07 13:06:52;;;;;;;1.20;0.70;;;;;;;;;;5042851;28;20227;-61
2022/11/07 13:09:24;;;;;;;1.80;0.68;;;;;;;;;;5035768;28;20467;-62
2022/11/07 13:11:53;;;;;;;4.57;0.88;;;;;;;;;;5045058;28;20355;-61
2022/11/07 13:14:22;;;;;;;1.10;0.80;;;;;;;;;;5054449;28;20215;-61
2022/11/07 13:16:50;;;;;;;4.35;1.05;;;;;;;;;;5037674;28;20217;-61
2022/11/07 13:19:25;;;;;;;2.97;0.82;;;;;;;;;;5044508;28;20536;-60
2022/11/07 13:21:58;;;;;;;20.92;2.30;;;;;;;;;;5049666;28;20468;-63
2022/11/07 13:24:24;;;;;;;3.00;0.90;;;;;;;;;;5040391;28;20220;-64
2022/11/07 13:26:50;;;;;;;2.72;0.95;;;;;;;;;;5055153;28;20644;-64
2022/11/07 13:29:22;;;;;;;1.95;0.90;;;;;;;;;;5045391;28;20237;-63
2022/11/07 13:31:52;;;;;;;2.30;0.90;;;;;;;;;;5034945;28;20337;-64
2022/11/07 13:34:25;;;;;;;4.00;0.73;;;;;;;;;;5035563;28;20366;-64
2022/11/07 13:36:55;;;;;;;6.70;1.00;;;;;;;;;;5037639;28;21050;-64
2022/11/07 13:39:23;;;;;;;5.10;1.13;;;;;;;;;;5045451;28;20213;-63
2022/11/07 13:41:50;;;;;;;6.78;1.00;;;;;;;;;;5044000;28;20281;-63
2022/11/07 13:44:18;;;;;;;2.92;0.95;;;;;;;;;;5034582;28;20214;-64
2022/11/07 13:46:46;;;;;;;3.05;0.73;;;;;;;;;;5035513;28;20213;-63
2022/11/07 13:49:16;;;;;;;3.13;0.90;;;;;;;;;;5040382;28;20213;-64
2022/11/07 13:51:47;;;;;;;1.00;0.80;;;;;;;;;;5053893;28;20429;-64
2022/11/07 13:54:16;;;;;;;4.75;1.90;;;;;;;;;;5055364;28;20284;-64
2022/11/07 13:56:43;;;;;;;2.70;1.00;;;;;;;;;;5054497;28;20225;-61
2022/11/07 13:59:12;;;;;;;3.28;2.35;;;;;;;;;;5055780;28;20236;-62
2022/11/07 14:01:42;;;;;;;3.10;0.80;;;;;;;;;;5055571;28;20209;-62
2022/11/07 14:04:13;;;;;;;2.25;1.00;;;;;;;;;;5056250;28;20208;-62
2022/11/07 14:06:39;;;;;;;3.33;0.98;;;;;;;;;;5055652;28;20216;-62
2022/11/07 14:09:07;;;;;;;1.77;0.70;;;;;;;;;;5035812;28;20550;-62
2022/11/07 14:11:34;;;;;;;5.35;1.02;;;;;;;;;;5042824;28;20299;-62
2022/11/07 14:14:01;;;;;;;4.20;0.95;;;;;;;;;;5036816;28;20390;-62
2022/11/07 14:16:29;;;;;;;3.35;1.08;;;;;;;;;;5044155;28;20213;-61
2022/11/07 14:18:57;;;;;;;3.20;1.00;;;;;;;;;;5042815;28;20269;-61
2022/11/07 14:21:25;;;;;;;2.03;0.80;;;;;;;;;;5053836;28;20228;-61
2022/11/07 14:23:52;;;;;;;5.20;1.08;;;;;;;;;;5039293;28;20463;-64
2022/11/07 14:26:22;;;;;;;5.35;1.00;;;;;;;;;;5038337;28;20214;-61
2022/11/07 14:28:48;;;;;;;5.97;1.90;;;;;;;;;;5039034;28;20233;-62
2022/11/07 14:31:17;;;;;;;3.72;1.45;;;;;;;;;;5053088;28;20232;-62
2022/11/07 14:33:47;;;;;;;4.60;1.10;;;;;;;;;;5043064;28;20214;-62
2022/11/07 14:36:13;;;;;;;3.20;1.10;;;;;;;;;;5046999;28;20547;-61
2022/11/07 14:38:44;;;;;;;3.90;1.20;;;;;;;;;;5055693;28;20259;-62
2022/11/07 14:41:12;;;;;;;7.88;1.40;;;;;;;;;;5060538;28;20217;-61
2022/11/07 14:43:40;;;;;;;4.43;1.50;;;;;;;;;;5055369;28;20213;-61
2022/11/07 14:46:07;;;;;;;2.53;1.50;;;;;;;;;;5058960;28;20217;-61
2022/11/07 14:48:35;;;;;;;4.97;1.25;;;;;;;;;;5059976;28;20402;-61
2022/11/07 14:51:02;;;;;;;1.23;1.13;;;;;;;;;;5053942;28;20228;-61
2022/11/07 14:53:30;;;;;;;2.25;1.17;;;;;;;;;;5052198;28;20501;-61
2022/11/07 14:55:58;;;;;;;4.10;1.05;;;;;;;;;;5050899;28;20209;-61